createdAt,value
2023-01-17T00:00:57.225Z,49.49
2023-01-17T00:05:12.493Z,50.76
2023-01-17T00:09:26.901Z,52.15
2023-01-17T00:13:27.311Z,52.37
2023-01-17T00:17:29.342Z,51.87
2023-01-17T00:21:44.512Z,51.91
2023-01-17T00:26:12.226Z,51.57
2023-01-17T00:30:12.592Z,51.12
2023-01-17T00:34:09.886Z,50.17
2023-01-17T00:38:12.701Z,50.62
2023-01-17T00:42:10.061Z,49.57
2023-01-17T00:46:23.757Z,49.15
2023-01-17T00:50:36.326Z,49.19
2023-01-17T00:54:51.495Z,48.81
2023-01-17T00:59:04.535Z,49.42
2023-01-17T01:03:22.876Z,48.98
2023-01-17T01:07:35.415Z,48.47
2023-01-17T01:11:50.576Z,48.64
2023-01-17T01:16:03.104Z,48.91
2023-01-17T01:20:15.624Z,48.48
2023-01-17T01:24:28.151Z,47.98
2023-01-17T01:28:43.289Z,48.78
2023-01-17T01:32:55.870Z,49.03
2023-01-17T01:36:56.071Z,48.44
2023-01-17T01:40:59.481Z,48.56
2023-01-17T01:45:02.782Z,48.69
2023-01-17T01:49:08.491Z,49.58
2023-01-17T01:53:10.467Z,50.14
2023-01-17T01:57:16.201Z,49.49
2023-01-17T02:01:20.351Z,49.09
2023-01-17T02:05:25.287Z,50.44
2023-01-17T02:09:26.417Z,49.46
2023-01-17T02:13:26.999Z,49.73
2023-01-17T02:17:47.231Z,49.50
2023-01-17T02:22:08.990Z,49.45
2023-01-17T02:26:43.993Z,50.17
2023-01-17T02:30:52.676Z,49.34
2023-01-17T02:35:02.221Z,49.71
2023-01-17T02:39:11.389Z,49.62
2023-01-17T02:43:17.396Z,49.82
2023-01-17T02:47:29.111Z,49.42
2023-01-17T02:51:57.988Z,49.32
2023-01-17T02:56:08.659Z,49.88
2023-01-17T03:00:23.941Z,50.18
2023-01-17T03:04:36.904Z,49.92
2023-01-17T03:08:37.551Z,50.69
2023-01-17T03:12:42.537Z,51.22
2023-01-17T03:16:43.096Z,50.89
2023-01-17T03:20:46.275Z,52.06
2023-01-17T03:24:46.296Z,51.41
2023-01-17T03:28:46.717Z,50.96
2023-01-17T03:32:46.797Z,50.06
2023-01-17T03:36:49.724Z,49.85
2023-01-17T03:40:49.738Z,50.52
2023-01-17T03:44:49.772Z,49.92
2023-01-17T03:48:50.196Z,51.08
2023-01-17T03:52:53.924Z,50.90
2023-01-17T03:56:53.953Z,49.93
2023-01-17T04:00:54.149Z,49.97
2023-01-17T04:04:54.315Z,50.08
2023-01-17T04:08:57.210Z,50.48
2023-01-17T04:12:57.303Z,50.67
2023-01-17T04:16:58.167Z,49.99
2023-01-17T04:20:58.377Z,49.38
2023-01-17T04:25:01.136Z,48.63
2023-01-17T04:29:01.230Z,48.54
2023-01-17T04:33:02.261Z,49.18
2023-01-17T04:37:02.349Z,48.40
2023-01-17T04:41:05.166Z,48.72
2023-01-17T04:45:05.415Z,48.86
2023-01-17T04:49:05.477Z,48.67
2023-01-17T04:53:05.836Z,48.89
2023-01-17T04:57:08.535Z,48.46
2023-01-17T05:01:11.021Z,48.43
2023-01-17T05:05:13.500Z,48.91
2023-01-17T05:09:13.727Z,48.31
2023-01-17T05:13:16.506Z,48.74
2023-01-17T05:17:16.647Z,48.93
2023-01-17T05:21:16.739Z,49.16
2023-01-17T05:25:17.096Z,49.19
2023-01-17T05:29:20.226Z,49.16
2023-01-17T05:33:20.313Z,49.24
2023-01-17T05:37:20.468Z,49.20
2023-01-17T05:41:20.536Z,49.46
2023-01-17T05:45:25.449Z,49.31
2023-01-17T05:49:25.878Z,48.94
2023-01-17T05:53:26.183Z,48.75
2023-01-17T05:57:26.330Z,48.94
2023-01-17T06:01:28.928Z,48.57
2023-01-17T06:05:30.549Z,48.72
2023-01-17T06:09:30.560Z,49.41
2023-01-17T06:13:30.633Z,49.38
2023-01-17T06:17:33.413Z,48.85
2023-01-17T06:21:33.519Z,49.00
2023-01-17T06:25:37.812Z,49.15
2023-01-17T06:29:37.974Z,48.91
2023-01-17T06:33:40.638Z,49.30
2023-01-17T06:37:40.694Z,48.26
2023-01-17T06:41:40.813Z,48.66
2023-01-17T06:45:40.976Z,49.06
2023-01-17T06:49:43.761Z,49.28
2023-01-17T06:53:44.017Z,49.63
2023-01-17T06:57:44.350Z,48.89
2023-01-17T07:01:44.480Z,48.90
2023-01-17T07:05:47.184Z,48.84
2023-01-17T07:09:47.332Z,49.03
2023-01-17T07:13:47.485Z,48.86
2023-01-17T07:17:47.484Z,49.06
2023-01-17T07:21:53.289Z,48.40
2023-01-17T07:25:57.958Z,48.15
2023-01-17T07:29:58.088Z,48.35
2023-01-17T07:33:58.166Z,48.38
2023-01-17T07:38:01.039Z,48.25
2023-01-17T07:42:01.040Z,48.31
2023-01-17T07:46:02.330Z,48.69
2023-01-17T07:50:02.886Z,48.20
2023-01-17T07:54:05.625Z,47.63
2023-01-17T07:58:06.021Z,47.55
2023-01-17T08:02:06.141Z,47.71
2023-01-17T08:06:07.053Z,47.86
2023-01-17T08:10:13.198Z,48.70
2023-01-17T08:14:13.281Z,48.54
2023-01-17T08:18:13.442Z,47.77
2023-01-17T08:22:14.655Z,48.09
2023-01-17T08:26:22.272Z,47.26
2023-01-17T08:30:22.486Z,45.91
2023-01-17T08:34:22.813Z,45.46
2023-01-17T08:38:24.070Z,45.72
2023-01-17T08:42:26.779Z,45.69
2023-01-17T08:46:27.216Z,45.34
2023-01-17T08:50:27.367Z,44.46
2023-01-17T08:54:27.435Z,44.57
2023-01-17T08:58:31.603Z,43.66
2023-01-17T09:02:31.829Z,43.19
2023-01-17T09:06:31.940Z,43.16
2023-01-17T09:10:32.064Z,41.79
2023-01-17T09:14:34.754Z,39.71
2023-01-17T09:18:37.005Z,40.29
2023-01-17T09:22:39.096Z,40.51
2023-01-17T09:26:39.623Z,40.55
2023-01-17T09:30:42.435Z,40.17
2023-01-17T09:34:42.504Z,39.96
2023-01-17T09:38:42.837Z,38.49
2023-01-17T09:42:44.672Z,37.30
2023-01-17T09:46:54.976Z,36.39
2023-01-17T09:51:02.766Z,35.04
2023-01-17T09:55:02.863Z,35.13
2023-01-17T09:59:32.742Z,35.52
2023-01-17T10:04:01.863Z,35.03
2023-01-17T10:08:19.169Z,37.21
2023-01-17T10:12:35.948Z,37.24
2023-01-17T10:16:51.466Z,37.95
2023-01-17T10:21:07.355Z,37.88
2023-01-17T10:25:43.035Z,36.40
2023-01-17T10:29:43.979Z,35.76
2023-01-17T10:33:51.237Z,34.31
2023-01-17T10:37:59.858Z,34.46
2023-01-17T10:42:09.393Z,35.07
2023-01-17T10:46:18.505Z,36.67
2023-01-17T10:50:19.938Z,37.48
2023-01-17T10:54:51.849Z,37.71
2023-01-17T10:59:00.724Z,37.61
2023-01-17T11:03:02.271Z,37.61
2023-01-17T11:07:18.447Z,37.75
2023-01-17T11:11:23.173Z,36.08
2023-01-17T11:15:26.052Z,34.47
2023-01-17T11:19:35.485Z,32.88
2023-01-17T11:23:37.066Z,32.74
2023-01-17T11:27:42.318Z,32.79
2023-01-17T11:31:42.474Z,32.55
2023-01-17T11:35:48.223Z,31.32
2023-01-17T11:39:50.045Z,32.88
2023-01-17T11:43:59.639Z,33.65
2023-01-17T11:48:14.770Z,33.84
2023-01-17T11:52:25.234Z,33.88
2023-01-17T11:56:35.861Z,32.03
2023-01-17T12:00:48.649Z,31.23
2023-01-17T12:05:04.097Z,30.96
2023-01-17T12:09:25.172Z,32.13
2023-01-17T12:13:55.867Z,31.86
2023-01-17T12:18:24.754Z,31.10
2023-01-17T12:22:45.245Z,29.88
2023-01-17T12:26:56.127Z,28.47
2023-01-17T12:31:21.957Z,28.12
2023-01-17T12:35:38.624Z,27.53
2023-01-17T12:39:44.779Z,26.41
2023-01-17T12:43:47.044Z,25.20
2023-01-17T12:47:55.464Z,25.70
2023-01-17T12:52:08.025Z,25.33
2023-01-17T12:56:19.040Z,25.62
2023-01-17T13:00:25.575Z,24.80
2023-01-17T13:04:33.140Z,25.89
2023-01-17T13:08:43.281Z,26.81
2023-01-17T13:12:44.336Z,27.70
2023-01-17T13:16:51.734Z,26.99
2023-01-17T13:21:11.255Z,26.79
2023-01-17T13:25:35.490Z,26.96
2023-01-17T13:29:49.081Z,26.64
2023-01-17T13:34:21.269Z,25.45
2023-01-17T13:39:06.097Z,24.80
2023-01-17T13:43:16.582Z,25.91
2023-01-17T13:47:43.685Z,26.94
2023-01-17T13:52:07.697Z,27.61
2023-01-17T13:56:17.368Z,28.61
2023-01-17T14:00:56.266Z,29.19
2023-01-17T14:05:15.267Z,29.98
2023-01-17T14:09:23.846Z,30.62
2023-01-17T14:13:37.971Z,32.17
2023-01-17T14:17:59.137Z,33.09
2023-01-17T14:22:25.481Z,34.68
2023-01-17T14:26:48.189Z,34.20
2023-01-17T14:30:54.279Z,34.44
2023-01-17T14:34:57.711Z,35.17
2023-01-17T14:38:57.947Z,35.67
2023-01-17T14:43:05.825Z,36.93
2023-01-17T14:47:05.938Z,37.75
2023-01-17T14:51:16.713Z,38.67
2023-01-17T14:55:21.348Z,39.40
2023-01-17T14:59:25.747Z,39.61
2023-01-17T15:03:26.421Z,39.89
2023-01-17T15:07:31.648Z,39.72
2023-01-17T15:11:36.213Z,40.61
2023-01-17T15:15:39.715Z,41.49
2023-01-17T15:19:46.375Z,42.01
2023-01-17T15:23:53.317Z,40.99
2023-01-17T15:27:54.092Z,41.00
2023-01-17T15:31:58.257Z,41.75
2023-01-17T15:36:03.984Z,42.37
2023-01-17T15:40:20.917Z,43.29
2023-01-17T15:44:49.962Z,43.87
2023-01-17T15:48:51.921Z,44.53
2023-01-17T15:52:53.131Z,45.39
2023-01-17T15:57:22.716Z,45.15
2023-01-17T16:01:28.372Z,45.25
2023-01-17T16:05:43.596Z,46.97
2023-01-17T16:09:47.092Z,46.80
2023-01-17T16:13:50.370Z,47.05
2023-01-17T16:17:54.869Z,47.02
2023-01-17T16:21:57.151Z,48.14
2023-01-17T16:25:57.360Z,49.16
2023-01-17T16:29:59.967Z,49.24
2023-01-17T16:33:59.978Z,48.90
2023-01-17T16:38:03.740Z,50.38
2023-01-17T16:42:05.224Z,49.52
2023-01-17T16:46:08.837Z,50.56
2023-01-17T16:50:09.956Z,50.47
2023-01-17T16:54:09.953Z,51.19
2023-01-17T16:58:10.363Z,51.28
2023-01-17T17:02:15.228Z,52.27
2023-01-17T17:06:15.862Z,52.91
2023-01-17T17:10:20.080Z,52.55
2023-01-17T17:14:20.410Z,51.78
2023-01-17T17:18:23.345Z,52.28
2023-01-17T17:22:23.552Z,52.11
2023-01-17T17:26:23.602Z,51.19
2023-01-17T17:30:23.725Z,50.46
2023-01-17T17:34:28.174Z,50.51
2023-01-17T17:38:28.223Z,50.68
2023-01-17T17:42:28.364Z,50.58
2023-01-17T17:46:29.783Z,50.74
2023-01-17T17:50:32.716Z,51.07
2023-01-17T17:54:33.196Z,51.41
2023-01-17T17:58:37.228Z,51.47
2023-01-17T18:02:37.268Z,51.55
2023-01-17T18:06:40.926Z,51.62
2023-01-17T18:10:42.557Z,51.94
2023-01-17T18:14:43.062Z,51.75
2023-01-17T18:18:47.787Z,51.66
2023-01-17T18:22:50.449Z,50.97
2023-01-17T18:26:53.175Z,51.21
2023-01-17T18:30:53.875Z,51.35
2023-01-17T18:34:54.317Z,51.23
2023-01-17T18:38:57.221Z,51.11
2023-01-17T18:42:57.576Z,50.98
2023-01-17T18:46:59.559Z,51.26
2023-01-17T18:51:01.132Z,51.19
2023-01-17T18:55:03.827Z,51.47
2023-01-17T18:59:05.787Z,51.27
2023-01-17T19:03:06.435Z,51.62
2023-01-17T19:07:06.626Z,51.48
2023-01-17T19:11:10.631Z,51.94
2023-01-17T19:15:12.932Z,52.08
2023-01-17T19:19:16.604Z,52.05
2023-01-17T19:23:16.716Z,51.93
2023-01-17T19:27:19.448Z,51.73
2023-01-17T19:31:23.138Z,51.53
2023-01-17T19:35:23.322Z,50.23
2023-01-17T19:39:26.183Z,50.17
2023-01-17T19:43:28.962Z,49.90
2023-01-17T19:47:29.068Z,49.42
2023-01-17T19:51:30.172Z,49.93
2023-01-17T19:55:30.250Z,49.97
2023-01-17T19:59:32.963Z,49.89
2023-01-17T20:03:33.151Z,49.58
2023-01-17T20:07:33.872Z,49.95
2023-01-17T20:11:34.000Z,49.95
2023-01-17T20:15:37.470Z,50.59
2023-01-17T20:19:38.164Z,50.36
2023-01-17T20:23:40.330Z,50.49
2023-01-17T20:27:41.123Z,50.43
2023-01-17T20:31:45.632Z,49.73
2023-01-17T20:35:45.672Z,50.04
2023-01-17T20:39:45.912Z,50.36
2023-01-17T20:43:47.631Z,50.11
2023-01-17T20:47:50.510Z,49.53
2023-01-17T20:51:51.399Z,50.11
2023-01-17T20:55:59.823Z,50.53
2023-01-17T20:59:59.878Z,49.93
2023-01-17T21:04:03.436Z,50.15
2023-01-17T21:08:04.043Z,50.01
2023-01-17T21:12:04.336Z,49.94
2023-01-17T21:16:04.644Z,49.77
2023-01-17T21:20:08.606Z,49.79
2023-01-17T21:24:09.323Z,49.65
2023-01-17T21:28:09.360Z,49.80
2023-01-17T21:32:09.670Z,49.92
2023-01-17T21:36:13.288Z,49.82
2023-01-17T21:40:17.113Z,49.75
2023-01-17T21:44:21.926Z,50.15
2023-01-17T21:48:21.962Z,49.98
2023-01-17T21:52:24.783Z,50.60
2023-01-17T21:56:37.634Z,50.47
2023-01-17T22:00:38.243Z,50.66
2023-01-17T22:04:38.284Z,50.83
2023-01-17T22:08:41.231Z,51.08
2023-01-17T22:12:41.318Z,50.69
2023-01-17T22:16:41.302Z,50.77
2023-01-17T22:20:43.298Z,51.04
2023-01-17T22:24:45.896Z,51.20
2023-01-17T22:28:47.022Z,50.93
2023-01-17T22:32:47.029Z,50.17
2023-01-17T22:36:47.096Z,50.54
2023-01-17T22:40:49.713Z,50.11
2023-01-17T22:44:50.165Z,49.95
2023-01-17T22:48:52.227Z,49.82
2023-01-17T22:52:52.317Z,49.97
2023-01-17T22:56:54.974Z,50.17
2023-01-17T23:00:57.411Z,50.57
2023-01-17T23:04:57.525Z,50.47
2023-01-17T23:09:01.781Z,50.07
2023-01-17T23:13:04.428Z,49.58
2023-01-17T23:17:19.233Z,49.20
2023-01-17T23:21:19.354Z,49.19
2023-01-17T23:25:19.639Z,49.66
2023-01-17T23:29:19.919Z,49.88
2023-01-17T23:33:20.409Z,50.40
2023-01-17T23:37:20.482Z,50.72
2023-01-17T23:41:32.982Z,51.32
2023-01-17T23:45:38.839Z,51.50
2023-01-17T23:49:38.837Z,51.85
2023-01-17T23:53:40.685Z,52.38
2023-01-17T23:57:40.942Z,52.91
